Wetterstation Vordersexau
Wetterdaten: Woche 09.05.16 - 15.05.16 (KW19)
Datum Zeit Temp. A. Feuchte A. Luftdruck Regen Wind Richtung Taupunkt Windchill Windben
09.05.2016 00:00 13,9 C 62 % 1006,7 hPa 0,0 l/m 0,0 km/h N-NO 6,7 C 13,9 C 0,0 km/h
09.05.2016 01:00 13,9 C 60 % 1006,9 hPa 0,0 l/m 0,0 km/h O-SO 6,3 C 13,9 C 0,0 km/h
09.05.2016 02:00 11,1 C 66 % 1007,2 hPa 0,0 l/m 0,0 km/h O-SO 5,0 C 11,1 C 0,0 km/h
09.05.2016 03:00 10,2 C 70 % 1007,5 hPa 0,0 l/m 0,0 km/h W 5,0 C 10,2 C 0,0 km/h
09.05.2016 04:00 10,4 C 73 % 1007,9 hPa 0,0 l/m 1,3 km/h W-NW 5,8 C 10,4 C 0,7 km/h
09.05.2016 05:00 9,3 C 75 % 1008,3 hPa 0,0 l/m 0,0 km/h W-NW 5,1 C 9,3 C 0,0 km/h
09.05.2016 06:00 10,0 C 78 % 1009,0 hPa 0,0 l/m 0,0 km/h W-NW 6,3 C 10,0 C 0,0 km/h
09.05.2016 07:00 12,3 C 77 % 1009,2 hPa 0,0 l/m 0,0 km/h W-NW 8,4 C 12,3 C 0,0 km/h
09.05.2016 08:00 15,9 C 73 % 1009,8 hPa 0,0 l/m 0,0 km/h SO 11,1 C 15,9 C 0,0 km/h
09.05.2016 09:00 20,4 C 57 % 1009,9 hPa 0,0 l/m 0,0 km/h W 11,6 C 20,4 C 0,0 km/h
09.05.2016 10:00 22,2 C 52 % 1009,7 hPa 0,0 l/m 0,0 km/h N 11,9 C 22,2 C 0,0 km/h
09.05.2016 11:00 22,9 C 49 % 1009,7 hPa 0,0 l/m 6,5 km/h W 11,6 C 22,9 C 3,6 km/h
09.05.2016 12:00 25,3 C 43 % 1009,6 hPa 0,0 l/m 0,0 km/h W 11,8 C 25,3 C 0,0 km/h
09.05.2016 13:00 24,9 C 45 % 1009,6 hPa 0,0 l/m 0,0 km/h N 12,1 C 24,9 C 0,0 km/h
09.05.2016 14:00 25,6 C 45 % 1009,6 hPa 0,0 l/m 0,0 km/h SO 12,8 C 25,6 C 0,0 km/h
09.05.2016 15:00 22,1 C 55 % 1009,3 hPa 0,0 l/m 0,0 km/h SO 12,6 C 22,1 C 0,0 km/h
09.05.2016 16:00 25,6 C 52 % 1008,9 hPa 0,0 l/m 7,8 km/h N 15,0 C 25,3 C 4,3 km/h
09.05.2016 17:00 24,9 C 48 % 1008,3 hPa 0,0 l/m 1,9 km/h N-NW 13,1 C 24,9 C 1,1 km/h
09.05.2016 18:00 24,1 C 52 % 1007,8 hPa 0,0 l/m 0,0 km/h NW 13,6 C 24,1 C 0,0 km/h
09.05.2016 19:00 20,7 C 64 % 1008,2 hPa 0,0 l/m 0,0 km/h NW 13,6 C 20,7 C 0,0 km/h
09.05.2016 20:00 18,8 C 68 % 1008,8 hPa 0,0 l/m 0,0 km/h NW 12,8 C 18,8 C 0,0 km/h
09.05.2016 21:00 17,9 C 74 % 1009,3 hPa 0,0 l/m 0,0 km/h NW 13,2 C 17,9 C 0,0 km/h
09.05.2016 22:00 17,2 C 76 % 1009,3 hPa 0,0 l/m 0,0 km/h NW 12,9 C 17,2 C 0,0 km/h
09.05.2016 23:00 16,2 C 79 % 1008,9 hPa 0,0 l/m 0,0 km/h O-SO 12,6 C 16,2 C 0,0 km/h
10.05.2016 00:00 15,3 C 82 % 1008,8 hPa 0,4 l/m 0,0 km/h O-SO 12,2 C 15,3 C 0,0 km/h
10.05.2016 01:00 15,0 C 84 % 1008,7 hPa 0,0 l/m 0,0 km/h O-SO 12,3 C 15,0 C 0,0 km/h
10.05.2016 02:00 14,6 C 84 % 1008,3 hPa 0,0 l/m 0,0 km/h O-SO 11,9 C 14,6 C 0,0 km/h
10.05.2016 03:00 14,5 C 85 % 1008,3 hPa 0,0 l/m 0,0 km/h O-SO 12,0 C 14,5 C 0,0 km/h
10.05.2016 04:00 14,4 C 85 % 1006,9 hPa 0,0 l/m 0,0 km/h SO 11,9 C 14,4 C 0,0 km/h
10.05.2016 05:00 14,3 C 85 % 1006,1 hPa 0,4 l/m 0,0 km/h S 11,8 C 14,3 C 0,0 km/h
10.05.2016 06:00 14,1 C 85 % 1006,7 hPa 0,0 l/m 0,0 km/h SW 11,6 C 14,1 C 0,0 km/h
10.05.2016 07:00 14,9 C 84 % 1006,8 hPa 0,0 l/m 0,0 km/h SW 12,2 C 14,9 C 0,0 km/h
10.05.2016 08:00 15,9 C 85 % 1006,9 hPa 0,0 l/m 0,0 km/h W 13,4 C 15,9 C 0,0 km/h
10.05.2016 09:00 16,2 C 85 % 1007,3 hPa 0,4 l/m 0,0 km/h NW 13,7 C 16,2 C 0,0 km/h
10.05.2016 10:00 20,8 C 77 % 1007,2 hPa 0,0 l/m 0,0 km/h W 16,6 C 20,8 C 0,0 km/h
10.05.2016 11:00 17,3 C 82 % 1008,6 hPa 0,0 l/m 4,5 km/h W 14,2 C 17,3 C 2,5 km/h
10.05.2016 12:00 17,9 C 83 % 1008,5 hPa 0,4 l/m 0,0 km/h SW 15,0 C 17,9 C 0,0 km/h
10.05.2016 13:00 20,9 C 79 % 1008,0 hPa 0,0 l/m 0,0 km/h N 17,1 C 20,9 C 0,0 km/h
10.05.2016 14:00 24,7 C 60 % 1007,6 hPa 0,0 l/m 0,0 km/h W 16,4 C 24,7 C 0,0 km/h
10.05.2016 15:00 24,9 C 58 % 1007,3 hPa 0,0 l/m 1,9 km/h W-NW 16,1 C 24,9 C 1,1 km/h
10.05.2016 16:00 26,2 C 52 % 1006,6 hPa 0,0 l/m 0,0 km/h W 15,6 C 26,2 C 0,0 km/h
10.05.2016 17:00 27,9 C 46 % 1006,5 hPa 0,0 l/m 2,6 km/h N 15,2 C 27,9 C 1,4 km/h
10.05.2016 18:00 29,5 C 40 % 1005,6 hPa 0,0 l/m 0,0 km/h W-NW 14,5 C 29,5 C 0,0 km/h
10.05.2016 19:00 22,4 C 54 % 1005,9 hPa 0,0 l/m 0,0 km/h NW 12,6 C 22,4 C 0,0 km/h
10.05.2016 20:00 18,5 C 67 % 1005,9 hPa 0,0 l/m 0,0 km/h W 12,3 C 18,5 C 0,0 km/h
10.05.2016 21:00 16,9 C 75 % 1006,2 hPa 0,0 l/m 0,0 km/h W 12,4 C 16,9 C 0,0 km/h
10.05.2016 22:00 15,1 C 79 % 1005,9 hPa 0,0 l/m 0,0 km/h SW 11,5 C 15,1 C 0,0 km/h
10.05.2016 23:00 14,9 C 83 % 1005,8 hPa 0,0 l/m 0,6 km/h N 12,0 C 14,9 C 0,4 km/h
11.05.2016 00:00 15,1 C 85 % 1005,6 hPa 0,0 l/m 0,0 km/h W-NW 12,6 C 15,1 C 0,0 km/h
11.05.2016 01:00 14,2 C 85 % 1005,2 hPa 0,0 l/m 0,0 km/h N 11,7 C 14,2 C 0,0 km/h
11.05.2016 02:00 12,8 C 85 % 1004,6 hPa 0,0 l/m 0,0 km/h O-NO 10,3 C 12,8 C 0,0 km/h
11.05.2016 03:00 12,2 C 85 % 1003,8 hPa 0,0 l/m 0,0 km/h O-SO 9,8 C 12,2 C 0,0 km/h
11.05.2016 04:00 11,4 C 85 % 1003,2 hPa 0,0 l/m 0,0 km/h O-NO 9,0 C 11,4 C 0,0 km/h
11.05.2016 05:00 10,9 C 85 % 1002,5 hPa 0,0 l/m 0,0 km/h SO 8,5 C 10,9 C 0,0 km/h
11.05.2016 06:00 11,5 C 84 % 1002,3 hPa 0,0 l/m 0,0 km/h S-SO 8,9 C 11,5 C 0,0 km/h
11.05.2016 07:00 12,7 C 83 % 1002,4 hPa 0,0 l/m 0,0 km/h S-SW 9,9 C 12,7 C 0,0 km/h
11.05.2016 08:00 13,9 C 82 % 1002,0 hPa 0,0 l/m 0,0 km/h W 10,9 C 13,9 C 0,0 km/h
11.05.2016 09:00 15,9 C 85 % 1002,0 hPa 0,0 l/m 0,0 km/h W-NW 13,4 C 15,9 C 0,0 km/h
11.05.2016 10:00 19,9 C 73 % 1001,1 hPa 0,0 l/m 0,0 km/h W 14,9 C 19,9 C 0,0 km/h
11.05.2016 11:00 18,9 C 76 % 1000,9 hPa 0,0 l/m 3,2 km/h O-SO 14,6 C 18,9 C 1,8 km/h
11.05.2016 12:00 21,2 C 71 % 1000,3 hPa 0,0 l/m 0,0 km/h W-SW 15,7 C 21,2 C 0,0 km/h
11.05.2016 13:00 22,5 C 68 % 999,6 hPa 0,0 l/m 5,2 km/h S 16,3 C 22,5 C 2,9 km/h
11.05.2016 14:00 21,9 C 69 % 999,2 hPa 0,0 l/m 1,3 km/h W-SW 15,9 C 21,9 C 0,7 km/h
11.05.2016 15:00 19,6 C 72 % 999,4 hPa 0,0 l/m 7,1 km/h S-SW 14,4 C 19,3 C 4,0 km/h
11.05.2016 16:00 19,4 C 75 % 999,1 hPa 0,0 l/m 6,5 km/h W 14,8 C 19,4 C 3,6 km/h
11.05.2016 17:00 17,9 C 79 % 998,9 hPa 0,0 l/m 0,0 km/h W-NW 14,2 C 17,9 C 0,0 km/h
11.05.2016 18:00 18,0 C 81 % 998,3 hPa 0,0 l/m 0,0 km/h W-NW 14,7 C 18,0 C 0,0 km/h
11.05.2016 19:00 18,7 C 78 % 997,8 hPa 0,0 l/m 0,0 km/h W-NW 14,8 C 18,7 C 0,0 km/h
11.05.2016 20:00 16,8 C 82 % 997,9 hPa 0,0 l/m 0,0 km/h NW 13,7 C 16,8 C 0,0 km/h
11.05.2016 21:00 15,9 C 84 % 998,1 hPa 0,0 l/m 0,0 km/h NW 13,2 C 15,9 C 0,0 km/h
11.05.2016 22:00 15,3 C 85 % 997,8 hPa 0,0 l/m 0,0 km/h O-NO 12,8 C 15,3 C 0,0 km/h
11.05.2016 23:00 14,9 C 85 % 997,6 hPa 0,0 l/m 0,0 km/h O-NO 12,4 C 14,9 C 0,0 km/h
12.05.2016 00:00 14,9 C 85 % 997,5 hPa 0,0 l/m 0,0 km/h O-NO 12,4 C 14,9 C 0,0 km/h
12.05.2016 01:00 14,6 C 85 % 997,3 hPa 0,0 l/m 0,0 km/h W-NW 12,1 C 14,6 C 0,0 km/h
12.05.2016 02:00 14,8 C 83 % 996,8 hPa 0,0 l/m 0,0 km/h W 11,9 C 14,8 C 0,0 km/h
12.05.2016 03:00 14,4 C 82 % 997,2 hPa 0,0 l/m 1,9 km/h S 11,4 C 14,4 C 1,1 km/h
12.05.2016 04:00 12,2 C 84 % 997,3 hPa 0,8 l/m 8,4 km/h S 9,6 C 10,9 C 4,7 km/h
12.05.2016 05:00 11,5 C 83 % 997,9 hPa 1,2 l/m 9,1 km/h S 8,7 C 9,8 C 5,0 km/h
12.05.2016 06:00 11,3 C 83 % 997,9 hPa 1,7 l/m 15,6 km/h SO 8,5 C 6,5 C 8,6 km/h
12.05.2016 07:00 11,4 C 83 % 997,7 hPa 0,8 l/m 0,0 km/h O 8,6 C 11,4 C 0,0 km/h
12.05.2016 08:00 13,2 C 83 % 997,4 hPa 0,4 l/m 0,0 km/h O-SO 10,4 C 13,2 C 0,0 km/h
12.05.2016 09:00 14,4 C 85 % 997,3 hPa 0,4 l/m 0,0 km/h O-SO 11,9 C 14,4 C 0,0 km/h
12.05.2016 10:00 14,9 C 85 % 997,5 hPa 0,0 l/m 0,0 km/h W 12,4 C 14,9 C 0,0 km/h
12.05.2016 11:00 15,8 C 82 % 997,2 hPa 0,0 l/m 3,2 km/h W-SW 12,7 C 15,8 C 1,8 km/h
12.05.2016 12:00 16,2 C 79 % 997,1 hPa 0,0 l/m 0,0 km/h W-SW 12,6 C 16,2 C 0,0 km/h
12.05.2016 13:00 16,1 C 78 % 996,7 hPa 0,0 l/m 16,2 km/h SW 12,3 C 12,2 C 9,0 km/h
12.05.2016 14:00 14,9 C 83 % 996,6 hPa 0,0 l/m 0,0 km/h W-SW 12,0 C 14,9 C 0,0 km/h
12.05.2016 15:00 14,4 C 85 % 996,7 hPa 0,4 l/m 4,5 km/h SO 11,9 C 14,4 C 2,5 km/h
12.05.2016 16:00 13,8 C 85 % 996,7 hPa 0,4 l/m 1,9 km/h S-SO 11,3 C 13,8 C 1,1 km/h
12.05.2016 17:00 13,6 C 85 % 996,6 hPa 1,2 l/m 0,0 km/h S-SO 11,1 C 13,6 C 0,0 km/h
12.05.2016 18:00 13,3 C 85 % 996,5 hPa 0,4 l/m 0,6 km/h S-SW 10,8 C 13,3 C 0,4 km/h
12.05.2016 19:00 12,9 C 83 % 996,3 hPa 0,8 l/m 0,0 km/h SW 10,1 C 12,9 C 0,0 km/h
12.05.2016 20:00 12,5 C 81 % 996,6 hPa 2,9 l/m 7,1 km/h S 9,3 C 12,0 C 4,0 km/h
12.05.2016 21:00 12,1 C 80 % 996,6 hPa 0,8 l/m 14,9 km/h SW 8,8 C 7,7 C 8,3 km/h
12.05.2016 22:00 11,9 C 78 % 996,8 hPa 0,8 l/m 17,5 km/h S-SW 8,2 C 6,5 C 9,7 km/h
12.05.2016 23:00 11,9 C 76 % 996,7 hPa 1,2 l/m 0,0 km/h W-SW 7,8 C 11,9 C 0,0 km/h
13.05.2016 00:00 11,9 C 75 % 996,6 hPa 0,4 l/m 8,4 km/h W-SW 7,6 C 10,6 C 4,7 km/h
13.05.2016 01:00 11,9 C 73 % 996,4 hPa 0,0 l/m 1,9 km/h W 7,2 C 11,9 C 1,1 km/h
13.05.2016 02:00 11,9 C 73 % 996,4 hPa 0,4 l/m 0,0 km/h W 7,2 C 11,9 C 0,0 km/h
13.05.2016 03:00 12,1 C 73 % 996,3 hPa 0,4 l/m 0,0 km/h W-SW 7,4 C 12,1 C 0,0 km/h
13.05.2016 04:00 12,1 C 74 % 996,4 hPa 0,0 l/m 0,0 km/h NW 7,6 C 12,1 C 0,0 km/h
13.05.2016 05:00 12,0 C 75 % 996,4 hPa 0,0 l/m 0,0 km/h NW 7,7 C 12,0 C 0,0 km/h
13.05.2016 06:00 12,1 C 75 % 996,5 hPa 0,0 l/m 0,0 km/h W 7,8 C 12,1 C 0,0 km/h
13.05.2016 07:00 12,4 C 75 % 997,0 hPa 0,4 l/m 0,0 km/h W 8,1 C 12,4 C 0,0 km/h
13.05.2016 08:00 13,1 C 75 % 997,3 hPa 0,0 l/m 0,0 km/h W 8,8 C 13,1 C 0,0 km/h
13.05.2016 09:00 13,2 C 75 % 997,6 hPa 0,0 l/m 2,6 km/h W-NW 8,9 C 13,2 C 1,4 km/h
13.05.2016 10:00 12,9 C 75 % 998,0 hPa 0,4 l/m 0,0 km/h NW 8,6 C 12,9 C 0,0 km/h
13.05.2016 11:00 13,6 C 77 % 998,4 hPa 0,0 l/m 0,0 km/h N 9,6 C 13,6 C 0,0 km/h
13.05.2016 12:00 14,1 C 82 % 998,9 hPa 0,0 l/m 0,0 km/h N 11,1 C 14,1 C 0,0 km/h
13.05.2016 13:00 14,5 C 84 % 999,2 hPa 0,0 l/m 0,0 km/h N 11,8 C 14,5 C 0,0 km/h
13.05.2016 14:00 16,0 C 86 % 999,2 hPa 0,0 l/m 0,0 km/h N 13,7 C 16,0 C 0,0 km/h
13.05.2016 15:00 18,5 C 81 % 999,2 hPa 0,0 l/m 0,0 km/h N 15,2 C 18,5 C 0,0 km/h
13.05.2016 16:00 18,8 C 77 % 999,2 hPa 0,0 l/m 0,0 km/h O-SO 14,7 C 18,8 C 0,0 km/h
13.05.2016 17:00 19,3 C 75 % 999,6 hPa 0,0 l/m 0,0 km/h O-SO 14,8 C 19,3 C 0,0 km/h
13.05.2016 18:00 16,8 C 81 % 1000,0 hPa 0,0 l/m 0,0 km/h O-SO 13,5 C 16,8 C 0,0 km/h
13.05.2016 19:00 15,4 C 85 % 1000,2 hPa 0,4 l/m 0,0 km/h N-NO 12,9 C 15,4 C 0,0 km/h
13.05.2016 20:00 14,3 C 86 % 1000,6 hPa 0,0 l/m 0,0 km/h N 12,0 C 14,3 C 0,0 km/h
13.05.2016 21:00 12,4 C 86 % 1001,3 hPa 0,4 l/m 0,0 km/h N 10,1 C 12,4 C 0,0 km/h
13.05.2016 22:00 11,4 C 86 % 1002,2 hPa 0,0 l/m 0,0 km/h N 9,1 C 11,4 C 0,0 km/h
13.05.2016 23:00 10,8 C 86 % 1002,7 hPa 0,0 l/m 0,0 km/h N 8,6 C 10,8 C 0,0 km/h
14.05.2016 00:00 11,6 C 85 % 1003,0 hPa 0,0 l/m 0,0 km/h N 9,2 C 11,6 C 0,0 km/h
14.05.2016 01:00 11,8 C 85 % 1003,2 hPa 0,0 l/m 0,0 km/h N 9,4 C 11,8 C 0,0 km/h
14.05.2016 02:00 11,6 C 85 % 1003,4 hPa 0,0 l/m 0,0 km/h N 9,2 C 11,6 C 0,0 km/h
14.05.2016 03:00 11,8 C 84 % 1003,5 hPa 0,4 l/m 0,0 km/h N 9,2 C 11,8 C 0,0 km/h
14.05.2016 04:00 11,9 C 84 % 1003,8 hPa 0,4 l/m 0,0 km/h N 9,3 C 11,9 C 0,0 km/h
14.05.2016 05:00 11,6 C 83 % 1004,1 hPa 0,0 l/m 0,0 km/h N 8,8 C 11,6 C 0,0 km/h
14.05.2016 06:00 11,8 C 83 % 1004,5 hPa 0,0 l/m 0,0 km/h N 9,0 C 11,8 C 0,0 km/h
14.05.2016 07:00 12,5 C 82 % 1004,9 hPa 0,0 l/m 0,0 km/h W 9,5 C 12,5 C 0,0 km/h
14.05.2016 08:00 13,6 C 82 % 1005,4 hPa 0,0 l/m 0,0 km/h W-NW 10,6 C 13,6 C 0,0 km/h
14.05.2016 09:00 13,9 C 86 % 1006,2 hPa 0,0 l/m 0,0 km/h N 11,6 C 13,9 C 0,0 km/h
14.05.2016 10:00 15,0 C 85 % 1006,6 hPa 0,0 l/m 0,0 km/h N-NO 12,5 C 15,0 C 0,0 km/h
14.05.2016 11:00 14,6 C 83 % 1007,1 hPa 0,0 l/m 11,0 km/h W 11,7 C 12,2 C 6,1 km/h
14.05.2016 12:00 12,6 C 86 % 1008,2 hPa 0,4 l/m 1,3 km/h W-SW 10,3 C 12,6 C 0,7 km/h
14.05.2016 13:00 16,6 C 84 % 1008,4 hPa 0,0 l/m 0,0 km/h W 13,9 C 16,6 C 0,0 km/h
14.05.2016 14:00 14,9 C 80 % 1008,4 hPa 0,4 l/m 0,0 km/h W 11,5 C 14,9 C 0,0 km/h
14.05.2016 15:00 13,4 C 82 % 1009,1 hPa 2,1 l/m 1,3 km/h NO 10,4 C 13,4 C 0,7 km/h
14.05.2016 16:00 12,9 C 85 % 1009,3 hPa 1,7 l/m 0,0 km/h N-NO 10,4 C 12,9 C 0,0 km/h
14.05.2016 17:00 12,9 C 85 % 1010,0 hPa 0,4 l/m 0,0 km/h N-NO 10,4 C 12,9 C 0,0 km/h
14.05.2016 18:00 12,5 C 83 % 1010,5 hPa 0,0 l/m 0,6 km/h N 9,7 C 12,5 C 0,4 km/h
14.05.2016 19:00 11,8 C 81 % 1011,2 hPa 0,0 l/m 0,0 km/h N 8,6 C 11,8 C 0,0 km/h
14.05.2016 20:00 11,1 C 81 % 1012,0 hPa 0,0 l/m 0,0 km/h N-NO 8,0 C 11,1 C 0,0 km/h
14.05.2016 21:00 9,2 C 86 % 1012,9 hPa 0,0 l/m 0,0 km/h N-NO 7,0 C 9,2 C 0,0 km/h
14.05.2016 22:00 8,3 C 86 % 1013,6 hPa 0,0 l/m 0,0 km/h O-NO 6,1 C 8,3 C 0,0 km/h
14.05.2016 23:00 7,9 C 86 % 1014,0 hPa 0,0 l/m 0,0 km/h O-NO 5,7 C 7,9 C 0,0 km/h
15.05.2016 00:00 7,3 C 87 % 1014,8 hPa 0,0 l/m 0,0 km/h O-NO 5,3 C 7,3 C 0,0 km/h
15.05.2016 01:00 6,8 C 86 % 1015,2 hPa 0,0 l/m 0,0 km/h O-NO 4,6 C 6,8 C 0,0 km/h
15.05.2016 02:00 6,8 C 86 % 1015,6 hPa 0,0 l/m 0,0 km/h O-NO 4,6 C 6,8 C 0,0 km/h
15.05.2016 03:00 6,4 C 86 % 1015,9 hPa 0,0 l/m 0,0 km/h O-NO 4,2 C 6,4 C 0,0 km/h
15.05.2016 04:00 6,3 C 86 % 1016,5 hPa 0,0 l/m 0,0 km/h N-NO 4,1 C 6,3 C 0,0 km/h
15.05.2016 05:00 5,5 C 87 % 1016,8 hPa 0,0 l/m 0,0 km/h N-NO 3,5 C 5,5 C 0,0 km/h
15.05.2016 06:00 4,6 C 87 % 1017,3 hPa 0,0 l/m 0,0 km/h N-NO 2,6 C 4,6 C 0,0 km/h
15.05.2016 07:00 9,2 C 80 % 1017,8 hPa 0,0 l/m 0,0 km/h N 5,9 C 9,2 C 0,0 km/h
15.05.2016 08:00 11,9 C 66 % 1017,9 hPa 0,0 l/m 0,0 km/h N-NO 5,8 C 11,9 C 0,0 km/h
15.05.2016 09:00 12,1 C 63 % 1018,4 hPa 0,0 l/m 3,9 km/h NW 5,3 C 12,1 C 2,2 km/h
15.05.2016 10:00 12,9 C 57 % 1018,5 hPa 0,0 l/m 0,0 km/h N-NO 4,6 C 12,9 C 0,0 km/h
15.05.2016 11:00 14,6 C 51 % 1018,7 hPa 0,0 l/m 0,0 km/h NW 4,6 C 14,6 C 0,0 km/h
15.05.2016 12:00 12,1 C 55 % 1018,8 hPa 0,0 l/m 0,0 km/h N 3,3 C 12,1 C 0,0 km/h
15.05.2016 13:00 14,4 C 46 % 1018,7 hPa 0,0 l/m 4,5 km/h W-NW 2,9 C 14,4 C 2,5 km/h
15.05.2016 14:00 15,8 C 42 % 1018,8 hPa 0,0 l/m 0,0 km/h N-NO 2,9 C 15,8 C 0,0 km/h
15.05.2016 15:00 14,8 C 46 % 1018,8 hPa 0,0 l/m 0,0 km/h N 3,3 C 14,8 C 0,0 km/h
15.05.2016 16:00 13,8 C 48 % 1018,9 hPa 0,0 l/m 1,3 km/h N-NO 3,0 C 13,8 C 0,7 km/h
15.05.2016 17:00 13,6 C 48 % 1019,0 hPa 0,0 l/m 0,0 km/h N-NW 2,8 C 13,6 C 0,0 km/h
15.05.2016 18:00 12,9 C 48 % 1019,1 hPa 0,0 l/m 0,0 km/h N 2,2 C 12,9 C 0,0 km/h
15.05.2016 19:00 11,2 C 55 % 1019,1 hPa 0,0 l/m 0,0 km/h W 2,5 C 11,2 C 0,0 km/h
15.05.2016 20:00 8,6 C 64 % 1019,4 hPa 0,0 l/m 0,0 km/h S 2,2 C 8,6 C 0,0 km/h
15.05.2016 21:00 7,3 C 72 % 1019,6 hPa 0,0 l/m 0,0 km/h S-SO 2,6 C 7,3 C 0,0 km/h
15.05.2016 22:00 6,8 C 77 % 1020,2 hPa 0,0 l/m 0,0 km/h SO 3,1 C 6,8 C 0,0 km/h
15.05.2016 23:00 6,9 C 79 % 1020,4 hPa 0,0 l/m 0,0 km/h SO 3,5 C 6,9 C 0,0 km/h
Min-Datum _ 15.05.16 10.05.16 12.05.16 - 09.05.16 - 15.05.16 15.05.16 09.05.16
_ Min-Zeit 06:41 18:41 19:41 - 00:41 - 18:41 06:41 00:41
Minimum _ 4,6 C 40 % 996,3 hPa - 0,0 km/h - 2,2 C 4,6 C 0,0 km/h
Max-Datum _ 10.05.16 15.05.16 15.05.16 12.05.16 12.05.16 - 10.05.16 10.05.16 12.05.16
_ Max-Zeit 18:41 00:41 23:41 20:41 22:41 - 13:41 18:41 22:41
Maximum _ 29,5 C 87 % 1020,4 hPa 2,9 l/m 17,5 km/h
S-SW
- 17,1 C 29,5 C 9,7 km/h
S-SW
Durchschnitt _ 14,7 C 75 % 1005,4 hPa #24,9 l/m 1,1 km/h N 10,1 C 14,6 C 0,6 km/h
www.sexauwetter.de